createdAt,value
2022-12-31T00:00:40.406Z,1.17
2022-12-31T00:03:10.594Z,0.60
2022-12-31T00:05:39.017Z,1.20
2022-12-31T00:08:07.510Z,0.80
2022-12-31T00:10:41.298Z,0.90
2022-12-31T00:13:09.854Z,0.53
2022-12-31T00:15:38.207Z,1.27
2022-12-31T00:18:06.551Z,0.50
2022-12-31T00:20:36.202Z,0.97
2022-12-31T00:23:04.480Z,0.93
2022-12-31T00:25:32.810Z,0.43
2022-12-31T00:28:01.164Z,1.13
2022-12-31T00:30:29.557Z,1.23
2022-12-31T00:32:57.877Z,1.30
2022-12-31T00:35:26.808Z,1.07
2022-12-31T00:37:56.499Z,2.90
2022-12-31T00:40:24.805Z,0.50
2022-12-31T00:42:53.140Z,1.30
2022-12-31T00:45:21.408Z,0.70
2022-12-31T00:47:49.724Z,1.33
2022-12-31T00:50:17.999Z,0.40
2022-12-31T00:52:46.252Z,2.37
2022-12-31T00:55:16.077Z,1.53
2022-12-31T00:57:44.527Z,1.37
2022-12-31T01:00:13.470Z,1.10
2022-12-31T01:02:41.899Z,0.47
2022-12-31T01:05:10.492Z,0.63
2022-12-31T01:07:39.319Z,0.90
2022-12-31T01:10:08.169Z,0.90
2022-12-31T01:12:37.838Z,1.33
2022-12-31T01:15:06.552Z,0.60
2022-12-31T01:17:34.846Z,1.10
2022-12-31T01:20:03.202Z,1.63
2022-12-31T01:22:31.509Z,0.93
2022-12-31T01:24:59.837Z,0.50
2022-12-31T01:27:28.168Z,0.67
2022-12-31T01:29:58.066Z,1.17
2022-12-31T01:32:26.374Z,1.23
2022-12-31T01:34:54.669Z,1.03
2022-12-31T01:37:22.995Z,0.53
2022-12-31T01:39:51.331Z,0.87
2022-12-31T01:42:19.661Z,0.70
2022-12-31T01:44:50.150Z,3.20
2022-12-31T01:47:21.309Z,0.40
2022-12-31T01:49:50.666Z,0.57
2022-12-31T01:52:20.029Z,2.57
2022-12-31T01:54:49.158Z,0.60
2022-12-31T01:57:17.632Z,0.60
2022-12-31T01:59:45.901Z,0.90
2022-12-31T02:02:14.464Z,0.50
2022-12-31T02:04:44.221Z,0.73
2022-12-31T02:07:12.574Z,0.67
2022-12-31T02:09:41.512Z,0.47
2022-12-31T02:12:09.903Z,0.57
2022-12-31T02:14:38.646Z,0.50
2022-12-31T02:17:07.820Z,0.60
2022-12-31T02:19:43.984Z,1.60
2022-12-31T02:22:15.878Z,1.00
2022-12-31T02:24:54.418Z,0.80
2022-12-31T02:27:25.471Z,0.40
2022-12-31T02:30:11.457Z,1.53
2022-12-31T02:32:44.230Z,0.80
2022-12-31T02:35:14.413Z,1.63
2022-12-31T02:37:42.824Z,0.60
2022-12-31T02:40:12.189Z,0.87
2022-12-31T02:42:40.487Z,0.63
2022-12-31T02:45:09.393Z,0.33
2022-12-31T02:47:40.608Z,0.43
2022-12-31T02:50:15.276Z,2.13
2022-12-31T02:52:45.806Z,0.80
2022-12-31T02:55:16.238Z,0.83
2022-12-31T02:57:44.982Z,1.20
2022-12-31T03:00:31.596Z,1.03
2022-12-31T03:02:59.987Z,0.67
2022-12-31T03:05:30.471Z,1.20
2022-12-31T03:07:58.772Z,0.80
2022-12-31T03:10:27.095Z,1.10
2022-12-31T03:12:54.404Z,1.20
2022-12-31T03:15:23.320Z,1.30
2022-12-31T03:17:52.292Z,0.60
2022-12-31T03:20:38.120Z,0.87
2022-12-31T03:23:08.232Z,0.97
2022-12-31T03:25:35.731Z,0.60
2022-12-31T03:28:04.464Z,1.10
2022-12-31T03:30:32.992Z,0.67
2022-12-31T03:33:01.365Z,0.77
2022-12-31T03:35:29.993Z,3.27
2022-12-31T03:37:58.587Z,3.07
2022-12-31T03:40:28.580Z,0.40
2022-12-31T03:42:57.033Z,1.20
2022-12-31T03:45:25.363Z,0.57
2022-12-31T03:47:53.705Z,1.43
2022-12-31T03:50:22.034Z,0.70
2022-12-31T03:52:50.344Z,1.03
2022-12-31T03:55:18.792Z,0.60
2022-12-31T03:57:48.448Z,3.83
2022-12-31T04:00:18.651Z,1.03
2022-12-31T04:02:47.050Z,1.37
2022-12-31T04:05:15.440Z,0.60
2022-12-31T04:07:43.799Z,1.63
2022-12-31T04:10:13.325Z,0.70
2022-12-31T04:12:41.654Z,0.70
2022-12-31T04:15:12.283Z,0.50
2022-12-31T04:17:40.607Z,1.13
2022-12-31T04:20:09.600Z,1.67
2022-12-31T04:22:37.953Z,1.40
2022-12-31T04:25:06.832Z,0.60
2022-12-31T04:27:35.146Z,0.67
2022-12-31T04:30:03.934Z,1.30
2022-12-31T04:32:33.575Z,1.20
2022-12-31T04:35:01.879Z,0.90
2022-12-31T04:37:30.197Z,2.00
2022-12-31T04:40:05.172Z,0.63
2022-12-31T04:42:34.055Z,0.87
2022-12-31T04:45:02.360Z,0.90
2022-12-31T04:47:30.651Z,0.50
2022-12-31T04:50:00.359Z,0.83
2022-12-31T04:52:28.640Z,1.20
2022-12-31T04:54:56.962Z,1.23
2022-12-31T04:57:25.262Z,2.17
2022-12-31T04:59:53.600Z,0.50
2022-12-31T05:02:22.054Z,0.73
2022-12-31T05:04:50.541Z,0.70
2022-12-31T05:07:20.202Z,0.40
2022-12-31T05:09:48.485Z,1.50
2022-12-31T05:12:16.811Z,1.23
2022-12-31T05:14:45.087Z,1.33
2022-12-31T05:17:13.439Z,0.97
2022-12-31T05:19:41.756Z,1.10
2022-12-31T05:22:27.798Z,0.73
2022-12-31T05:24:57.493Z,1.77
2022-12-31T05:27:25.850Z,0.53
2022-12-31T05:29:54.129Z,0.40
2022-12-31T05:32:22.502Z,0.73
2022-12-31T05:34:50.798Z,1.00
2022-12-31T05:37:19.097Z,0.43
2022-12-31T05:39:47.452Z,0.97
2022-12-31T05:42:17.125Z,0.60
2022-12-31T05:44:45.490Z,1.30
2022-12-31T05:47:13.931Z,0.90
2022-12-31T05:49:42.260Z,2.20
2022-12-31T05:52:10.614Z,0.80
2022-12-31T05:54:39.077Z,0.60
2022-12-31T05:57:07.442Z,1.03
2022-12-31T05:59:37.133Z,0.50
2022-12-31T06:02:05.428Z,0.43
2022-12-31T06:04:33.731Z,0.27
2022-12-31T06:07:02.067Z,0.57
2022-12-31T06:09:30.392Z,0.67
2022-12-31T06:11:58.741Z,0.57
2022-12-31T06:14:27.011Z,0.50
2022-12-31T06:16:56.720Z,0.90
2022-12-31T06:19:25.009Z,0.83
2022-12-31T06:21:53.313Z,0.93
2022-12-31T06:24:21.837Z,0.40
2022-12-31T06:26:50.147Z,0.60
2022-12-31T06:29:18.841Z,0.80
2022-12-31T06:31:47.142Z,0.60
2022-12-31T06:34:16.801Z,1.80
2022-12-31T06:36:45.133Z,0.77
2022-12-31T06:39:13.482Z,0.90
2022-12-31T06:41:41.785Z,0.60
2022-12-31T06:44:10.084Z,0.50
2022-12-31T06:46:38.560Z,0.50
2022-12-31T06:49:06.994Z,0.80
2022-12-31T06:51:36.665Z,0.47
2022-12-31T06:54:04.969Z,0.40
2022-12-31T06:56:35.014Z,0.40
2022-12-31T06:59:03.758Z,0.40
2022-12-31T07:01:40.231Z,0.70
2022-12-31T07:04:12.592Z,0.60
2022-12-31T07:06:44.177Z,0.53
2022-12-31T07:09:13.901Z,0.50
2022-12-31T07:11:43.511Z,0.40
2022-12-31T07:14:13.475Z,0.40
2022-12-31T07:16:48.525Z,0.70
2022-12-31T07:19:22.717Z,0.87
2022-12-31T07:21:52.938Z,0.40
2022-12-31T07:24:21.625Z,0.53
2022-12-31T07:26:56.932Z,1.13
2022-12-31T07:29:26.900Z,0.40
2022-12-31T07:31:57.555Z,0.40
2022-12-31T07:34:27.100Z,0.50
2022-12-31T07:37:01.239Z,0.40
2022-12-31T07:39:30.567Z,0.50
2022-12-31T07:42:00.675Z,0.50
2022-12-31T07:44:35.920Z,0.30
2022-12-31T07:47:05.429Z,0.60
2022-12-31T07:49:33.844Z,0.70
2022-12-31T07:52:03.782Z,0.43
2022-12-31T07:54:32.109Z,0.60
2022-12-31T07:57:00.719Z,0.40
2022-12-31T07:59:34.622Z,0.40
2022-12-31T08:02:03.889Z,0.63
2022-12-31T08:04:33.516Z,0.77
2022-12-31T08:07:04.880Z,0.30
2022-12-31T08:09:37.016Z,0.40
2022-12-31T08:12:05.542Z,0.63
2022-12-31T08:14:33.806Z,0.40
2022-12-31T08:17:02.384Z,0.97
2022-12-31T08:19:31.688Z,0.37
2022-12-31T08:22:04.191Z,0.30
2022-12-31T08:24:36.286Z,0.40
2022-12-31T08:27:07.055Z,0.30
2022-12-31T08:29:36.538Z,0.40
2022-12-31T08:32:07.463Z,0.53
2022-12-31T08:34:36.966Z,0.23
2022-12-31T08:37:06.700Z,1.43
2022-12-31T08:39:40.135Z,0.50
2022-12-31T08:42:10.494Z,0.93
2022-12-31T08:44:41.465Z,0.80
2022-12-31T08:47:11.582Z,0.97
2022-12-31T08:49:40.082Z,0.40
2022-12-31T08:52:10.843Z,0.30
2022-12-31T08:54:41.068Z,0.67
2022-12-31T08:57:11.239Z,0.40
2022-12-31T08:59:40.345Z,0.60
2022-12-31T09:02:22.747Z,0.47
2022-12-31T09:04:54.415Z,0.57
2022-12-31T09:07:24.345Z,1.17
2022-12-31T09:09:56.122Z,0.63
2022-12-31T09:12:25.211Z,0.97
2022-12-31T09:14:55.353Z,0.57
2022-12-31T09:17:41.616Z,1.13
2022-12-31T09:20:14.602Z,0.50
2022-12-31T09:22:43.331Z,0.50
2022-12-31T09:25:16.446Z,1.40
2022-12-31T09:27:45.613Z,1.43
2022-12-31T09:30:14.312Z,0.67
2022-12-31T09:32:44.144Z,0.60
2022-12-31T09:35:14.908Z,0.57
2022-12-31T09:37:45.427Z,1.83
2022-12-31T09:40:33.043Z,0.60
2022-12-31T09:43:16.283Z,0.40
2022-12-31T09:45:51.632Z,0.43
2022-12-31T09:48:34.840Z,0.93
2022-12-31T09:51:06.282Z,0.80
2022-12-31T09:53:41.103Z,0.90
2022-12-31T09:56:15.178Z,0.50
2022-12-31T09:58:44.832Z,1.23
2022-12-31T10:01:16.062Z,2.03
2022-12-31T10:04:05.350Z,0.67
2022-12-31T10:06:34.322Z,0.40
2022-12-31T10:09:23.461Z,1.47
2022-12-31T10:12:03.078Z,0.60
2022-12-31T10:14:35.832Z,0.60
2022-12-31T10:17:07.965Z,0.97
2022-12-31T10:19:47.304Z,1.00
2022-12-31T10:22:20.048Z,2.80
2022-12-31T10:24:51.417Z,0.73
2022-12-31T10:27:23.972Z,0.40
2022-12-31T10:29:57.849Z,0.30
2022-12-31T10:32:31.559Z,0.60
2022-12-31T10:35:02.728Z,0.83
2022-12-31T10:37:32.094Z,0.50
2022-12-31T10:40:09.113Z,0.60
2022-12-31T10:42:41.200Z,0.53
2022-12-31T10:45:39.440Z,0.50
2022-12-31T10:48:26.360Z,0.50
2022-12-31T10:51:15.308Z,0.47
2022-12-31T10:53:56.646Z,0.53
2022-12-31T10:56:43.872Z,0.40
2022-12-31T10:59:18.543Z,0.70
2022-12-31T11:01:49.770Z,0.67
2022-12-31T11:04:25.836Z,0.73
2022-12-31T11:06:59.850Z,1.03
2022-12-31T11:09:47.240Z,0.87
2022-12-31T11:12:19.437Z,0.50
2022-12-31T11:15:11.788Z,0.60
2022-12-31T11:17:45.207Z,0.87
2022-12-31T11:20:23.901Z,0.40
2022-12-31T11:23:04.233Z,0.87
2022-12-31T11:25:35.229Z,0.70
2022-12-31T11:28:17.190Z,0.80
2022-12-31T11:30:49.491Z,0.63
2022-12-31T11:33:22.332Z,1.00
2022-12-31T11:36:02.870Z,0.63
2022-12-31T11:38:31.478Z,0.87
2022-12-31T11:41:02.035Z,1.13
2022-12-31T11:43:32.560Z,2.87
2022-12-31T11:46:20.664Z,0.60
2022-12-31T11:48:54.569Z,1.43
2022-12-31T11:51:29.431Z,4.00
2022-12-31T11:54:04.356Z,0.70
2022-12-31T11:56:33.248Z,1.30
2022-12-31T11:59:04.853Z,1.30
2022-12-31T12:01:38.248Z,1.73
2022-12-31T12:04:08.014Z,0.97
2022-12-31T12:06:36.321Z,1.17
2022-12-31T12:09:05.619Z,0.90
2022-12-31T12:11:34.589Z,0.90
2022-12-31T12:14:02.908Z,0.70
2022-12-31T12:16:31.410Z,0.70
2022-12-31T12:19:04.079Z,1.50
2022-12-31T12:21:34.077Z,1.10
2022-12-31T12:24:02.927Z,1.03
2022-12-31T12:26:32.058Z,1.10
2022-12-31T12:29:01.492Z,1.07
2022-12-31T12:31:30.584Z,0.87
2022-12-31T12:33:58.978Z,1.27
2022-12-31T12:36:27.570Z,1.13
2022-12-31T12:39:03.670Z,1.10
2022-12-31T12:41:32.192Z,1.20
2022-12-31T12:44:03.832Z,3.07
2022-12-31T12:46:32.918Z,2.73
2022-12-31T12:49:01.245Z,1.53
2022-12-31T12:51:33.824Z,2.93
2022-12-31T12:54:04.753Z,0.87
2022-12-31T12:56:35.947Z,1.87
2022-12-31T12:59:25.433Z,2.00
2022-12-31T13:01:55.681Z,0.50
2022-12-31T13:04:35.904Z,1.90
2022-12-31T13:07:09.063Z,1.73
2022-12-31T13:09:43.947Z,1.53
2022-12-31T13:12:16.071Z,1.20
2022-12-31T13:14:46.231Z,1.13
2022-12-31T13:17:21.075Z,1.90
2022-12-31T13:19:50.338Z,1.10
2022-12-31T13:22:20.570Z,0.73
2022-12-31T13:24:56.903Z,1.00
2022-12-31T13:27:25.931Z,0.60
2022-12-31T13:29:54.428Z,1.20
2022-12-31T13:32:23.392Z,0.90
2022-12-31T13:34:52.311Z,1.07
2022-12-31T13:37:24.610Z,2.13
2022-12-31T13:39:53.512Z,1.83
2022-12-31T13:42:24.341Z,2.40
2022-12-31T13:44:53.365Z,3.80
2022-12-31T13:47:22.416Z,4.67
2022-12-31T13:49:51.879Z,2.83
2022-12-31T13:52:23.720Z,1.20
2022-12-31T13:54:54.710Z,0.83
2022-12-31T13:57:25.583Z,1.90
2022-12-31T13:59:55.236Z,0.70
2022-12-31T14:02:28.367Z,1.03
2022-12-31T14:04:58.992Z,1.20
2022-12-31T14:07:35.394Z,1.13
2022-12-31T14:10:11.082Z,1.50
2022-12-31T14:12:41.954Z,1.83
2022-12-31T14:15:11.651Z,0.57
2022-12-31T14:17:42.092Z,0.67
2022-12-31T14:20:13.585Z,0.73
2022-12-31T14:22:42.979Z,1.43
2022-12-31T14:25:13.454Z,0.57
2022-12-31T14:27:43.640Z,0.53
2022-12-31T14:30:15.426Z,1.87
2022-12-31T14:32:49.956Z,1.10
2022-12-31T14:35:25.820Z,2.10
2022-12-31T14:37:55.727Z,0.90
2022-12-31T14:40:25.703Z,2.10
2022-12-31T14:42:57.917Z,1.30
2022-12-31T14:45:29.745Z,1.70
2022-12-31T14:47:59.330Z,2.03
2022-12-31T14:50:27.894Z,2.30
2022-12-31T14:52:56.609Z,1.97
2022-12-31T14:55:26.808Z,0.90
2022-12-31T15:00:53.165Z,1.53
2022-12-31T15:03:25.116Z,1.50
2022-12-31T15:05:54.181Z,1.53
2022-12-31T15:08:35.027Z,1.30
2022-12-31T15:11:09.269Z,1.00
2022-12-31T15:13:42.275Z,1.70
2022-12-31T15:16:15.003Z,2.40
2022-12-31T15:18:46.039Z,1.83
2022-12-31T15:21:32.606Z,1.40
2022-12-31T15:24:00.942Z,3.53
2022-12-31T15:26:31.202Z,0.77
2022-12-31T15:29:01.939Z,3.50
2022-12-31T15:31:30.335Z,3.00
2022-12-31T15:33:59.462Z,2.30
2022-12-31T15:36:28.154Z,1.13
2022-12-31T15:39:05.875Z,3.23
2022-12-31T15:41:42.909Z,1.10
2022-12-31T15:44:22.433Z,3.90
2022-12-31T15:46:52.277Z,0.93
2022-12-31T15:49:23.078Z,1.73
2022-12-31T15:51:52.557Z,1.50
2022-12-31T15:54:25.144Z,1.23
2022-12-31T15:56:53.786Z,1.60
2022-12-31T15:59:24.572Z,3.60
2022-12-31T16:01:52.899Z,4.43
2022-12-31T16:04:21.967Z,2.43
2022-12-31T16:06:51.193Z,1.67
2022-12-31T16:09:23.782Z,1.17
2022-12-31T16:11:52.083Z,2.40
2022-12-31T16:14:21.971Z,1.93
2022-12-31T16:16:55.828Z,0.93
2022-12-31T16:19:31.897Z,3.27
2022-12-31T16:22:00.657Z,2.80
2022-12-31T16:24:29.713Z,1.83
2022-12-31T16:26:58.517Z,2.13
2022-12-31T16:29:27.109Z,3.33
2022-12-31T16:31:56.743Z,2.20
2022-12-31T16:34:25.589Z,2.07
2022-12-31T16:36:57.807Z,5.00
2022-12-31T16:39:27.352Z,0.83
2022-12-31T16:41:55.772Z,1.23
2022-12-31T16:44:27.904Z,3.33
2022-12-31T16:47:01.387Z,1.57
2022-12-31T16:49:30.003Z,2.40
2022-12-31T16:51:59.742Z,2.77
2022-12-31T16:54:30.055Z,1.67
2022-12-31T16:56:58.676Z,1.97
2022-12-31T16:59:33.345Z,4.67
2022-12-31T17:02:05.396Z,1.43
2022-12-31T17:04:33.747Z,3.57
2022-12-31T17:07:17.096Z,2.97
2022-12-31T17:09:45.396Z,1.37
2022-12-31T17:12:16.596Z,1.77
2022-12-31T17:14:49.455Z,3.70
2022-12-31T17:17:21.383Z,2.00
2022-12-31T17:19:50.416Z,1.40
2022-12-31T17:22:24.146Z,4.77
2022-12-31T17:25:00.859Z,1.00
2022-12-31T17:27:29.153Z,1.60
2022-12-31T17:29:57.449Z,2.23
2022-12-31T17:32:31.259Z,1.97
2022-12-31T17:34:59.693Z,1.90
2022-12-31T17:37:28.220Z,1.53
2022-12-31T17:40:17.065Z,2.97
2022-12-31T17:42:47.044Z,13.03
2022-12-31T17:45:17.918Z,1.30
2022-12-31T17:47:48.953Z,1.60
2022-12-31T17:50:20.653Z,3.30
2022-12-31T17:52:49.025Z,2.57
2022-12-31T17:55:17.520Z,1.90
2022-12-31T17:57:47.782Z,1.90
2022-12-31T18:00:18.610Z,4.00
2022-12-31T18:02:48.416Z,4.00
2022-12-31T18:05:17.565Z,1.87
2022-12-31T18:07:45.892Z,3.87
2022-12-31T18:10:14.861Z,2.17
2022-12-31T18:12:43.168Z,1.87
2022-12-31T18:15:12.896Z,3.37
2022-12-31T18:17:41.584Z,1.50
2022-12-31T18:20:11.918Z,2.03
2022-12-31T18:22:40.466Z,4.20
2022-12-31T18:25:09.000Z,2.17
2022-12-31T18:27:37.290Z,4.13
2022-12-31T18:30:07.980Z,1.67
2022-12-31T18:32:36.763Z,1.93
2022-12-31T18:35:05.188Z,2.13
2022-12-31T18:37:35.032Z,3.57
2022-12-31T18:40:03.333Z,2.87
2022-12-31T18:42:31.686Z,3.33
2022-12-31T18:45:00.249Z,3.73
2022-12-31T18:47:31.411Z,6.10
2022-12-31T18:50:04.255Z,2.33
2022-12-31T18:52:32.570Z,4.83
2022-12-31T18:55:02.557Z,5.93
2022-12-31T18:57:31.013Z,2.53
2022-12-31T18:59:59.298Z,2.30
2022-12-31T19:02:27.582Z,2.20
2022-12-31T19:04:55.911Z,2.40
2022-12-31T19:07:24.171Z,2.23
2022-12-31T19:09:58.082Z,2.90
2022-12-31T19:12:28.540Z,2.50
2022-12-31T19:14:56.862Z,4.30
2022-12-31T19:17:26.068Z,3.83
2022-12-31T19:19:54.630Z,2.20
2022-12-31T19:22:22.908Z,2.33
2022-12-31T19:24:51.181Z,2.13
2022-12-31T19:27:19.735Z,3.13
2022-12-31T19:29:49.393Z,4.03
2022-12-31T19:32:17.686Z,1.77
2022-12-31T19:34:46.268Z,3.57
2022-12-31T19:37:16.156Z,2.40
2022-12-31T19:39:44.449Z,1.43
2022-12-31T19:42:13.048Z,3.67
2022-12-31T19:44:41.346Z,3.83
2022-12-31T19:47:12.727Z,3.43
2022-12-31T19:49:40.990Z,5.07
2022-12-31T19:52:09.296Z,3.30
2022-12-31T19:54:37.739Z,3.73
2022-12-31T19:57:06.163Z,2.17
2022-12-31T19:59:34.436Z,9.63
2022-12-31T20:02:03.244Z,2.33
2022-12-31T20:04:33.002Z,6.40
2022-12-31T20:07:01.310Z,2.57
2022-12-31T20:09:29.625Z,4.63
2022-12-31T20:11:57.930Z,2.00
2022-12-31T20:14:26.294Z,1.93
2022-12-31T20:16:56.308Z,3.37
2022-12-31T20:19:24.652Z,2.13
2022-12-31T20:21:54.360Z,1.77
2022-12-31T20:24:22.648Z,2.40
2022-12-31T20:26:50.947Z,2.17
2022-12-31T20:29:19.566Z,4.37
2022-12-31T20:31:47.897Z,3.03
2022-12-31T20:34:16.232Z,4.53
2022-12-31T20:36:44.563Z,3.47
2022-12-31T20:39:14.281Z,3.83
2022-12-31T20:41:42.572Z,2.70
2022-12-31T20:44:10.960Z,1.97
2022-12-31T20:46:39.358Z,3.47
2022-12-31T20:49:08.149Z,3.93
2022-12-31T20:51:36.554Z,3.03
2022-12-31T20:54:05.520Z,2.53
2022-12-31T20:56:36.474Z,2.00
2022-12-31T20:59:04.940Z,3.00
2022-12-31T21:02:11.112Z,3.83
2022-12-31T21:04:21.675Z,1.93
2022-12-31T21:06:51.396Z,3.17
2022-12-31T21:09:19.675Z,3.20
2022-12-31T21:12:07.011Z,4.07
2022-12-31T21:14:39.883Z,2.30
2022-12-31T21:17:11.163Z,2.37
2022-12-31T21:19:39.474Z,5.90
2022-12-31T21:22:07.804Z,2.53
2022-12-31T21:24:36.081Z,3.53
2022-12-31T21:27:05.761Z,3.13
2022-12-31T21:29:34.964Z,2.83
2022-12-31T21:32:05.316Z,4.73
2022-12-31T21:34:33.662Z,7.87
2022-12-31T21:37:01.988Z,2.80
2022-12-31T21:39:30.317Z,3.67
2022-12-31T21:41:58.600Z,3.63
2022-12-31T21:44:28.728Z,2.13
2022-12-31T21:47:34.897Z,2.30
2022-12-31T21:50:04.690Z,2.60
2022-12-31T21:52:34.052Z,5.63
2022-12-31T21:55:20.121Z,3.17
2022-12-31T21:58:24.299Z,5.00
2022-12-31T22:00:56.260Z,3.80
2022-12-31T22:03:28.565Z,3.63
2022-12-31T22:05:57.441Z,3.20
2022-12-31T22:08:25.772Z,2.80
2022-12-31T22:10:55.038Z,3.23
2022-12-31T22:13:23.482Z,6.90
2022-12-31T22:15:58.758Z,6.40
2022-12-31T22:18:30.331Z,3.43
2022-12-31T22:21:05.308Z,3.33
2022-12-31T22:23:33.942Z,4.47
2022-12-31T22:26:02.227Z,4.03
2022-12-31T22:28:39.595Z,3.23
2022-12-31T22:31:10.050Z,8.30
2022-12-31T22:33:38.358Z,3.30
2022-12-31T22:36:07.299Z,3.70
2022-12-31T22:38:36.075Z,4.93
2022-12-31T22:41:05.182Z,3.87
2022-12-31T22:43:33.655Z,4.40
2022-12-31T22:46:07.368Z,4.23
2022-12-31T22:48:37.101Z,5.17
2022-12-31T22:51:05.523Z,6.53
2022-12-31T22:53:34.009Z,3.37
2022-12-31T22:56:02.423Z,4.80
2022-12-31T22:58:30.733Z,5.00
2022-12-31T23:00:59.058Z,3.90
2022-12-31T23:03:27.429Z,4.17
2022-12-31T23:05:57.145Z,4.00
2022-12-31T23:08:25.465Z,5.43
2022-12-31T23:11:05.730Z,4.93
2022-12-31T23:13:55.187Z,4.90
2022-12-31T23:16:40.931Z,12.23
2022-12-31T23:19:27.105Z,4.87
2022-12-31T23:22:14.317Z,6.00
2022-12-31T23:24:42.648Z,5.53
2022-12-31T23:27:10.901Z,9.13
2022-12-31T23:29:46.024Z,9.67
2022-12-31T23:32:15.453Z,7.27
2022-12-31T23:34:44.063Z,10.30
2022-12-31T23:37:13.712Z,9.57
2022-12-31T23:39:42.069Z,10.73
2022-12-31T23:42:10.488Z,10.03
2022-12-31T23:44:38.759Z,13.57
2022-12-31T23:47:07.190Z,9.37
2022-12-31T23:49:35.474Z,14.37
2022-12-31T23:52:03.807Z,8.70
2022-12-31T23:54:35.106Z,12.30
2022-12-31T23:57:04.005Z,8.60
2022-12-31T23:59:32.284Z,10.47
